Terminal Aerodrome Forecast
Issued by NWS

Home | Current Version | Previous Version | Graphics & Text | Print | Product List | Glossary On
Versions: 1 2 3 4 5 6 7 8 9 10 11 12 13 14 15 16 17 18 19 20 21 22
000
FTUS43 KABR 251055 CCA
TAFATY
TAF COR
KATY 251055Z 2511/2606 VRB05KT P6SM SKC
      TEMPO 2511/2513 1SM BR VV001
     FM251600 03006KT P6SM SKC=

USA.gov is the U.S. government's official web portal to all federal, state and local government web resources and services.